Time;durP1;ratioP1;P1;durP2;ratioP2;P2;SDS_P1;SDS_P2;PMS_P1;PMS_P2;Temp;Humidity;BMP_temperature;BMP_pressure;BME280_temperature;BME280_humidity;BME280_pressure;Samples;Min_cycle;Max_cycle;Signal;HPM_P1;HPM_P2
2023/01/02 00:02:26;;;;;;;22.97;14.53;;;;;;;-144.22;100.00;60274.75;6287341;28;20328;-67
2023/01/02 00:05:28;;;;;;;21.93;14.30;;;;;;;-144.22;100.00;60274.75;6290267;28;20336;-68
2023/01/02 00:08:31;;;;;;;20.33;12.80;;;;;;;-144.22;100.00;60274.75;6273179;28;20311;-68
2023/01/02 00:11:33;;;;;;;30.30;16.77;;;;;;;-144.22;100.00;60274.75;6254417;28;20240;-67
2023/01/02 00:14:36;;;;;;;45.60;15.73;;;;;;;-144.22;100.00;60274.75;6292247;28;20230;-68
2023/01/02 00:17:38;;;;;;;34.87;17.07;;;;;;;-144.22;100.00;60274.75;6291176;28;20254;-68
2023/01/02 00:20:40;;;;;;;25.00;14.17;;;;;;;-144.22;100.00;60274.75;6289197;28;20321;-68
2023/01/02 00:23:43;;;;;;;26.07;15.10;;;;;;;-144.22;100.00;60274.75;6291553;28;20771;-70
2023/01/02 00:26:45;;;;;;;23.23;14.03;;;;;;;-144.22;100.00;60274.75;6277027;28;20828;-67
2023/01/02 00:29:47;;;;;;;27.23;14.97;;;;;;;-144.22;100.00;60274.75;6287820;28;20635;-67
2023/01/02 00:32:49;;;;;;;21.70;13.50;;;;;;;-144.22;100.00;60274.75;6275610;28;20308;-67
2023/01/02 00:35:51;;;;;;;32.70;15.10;;;;;;;-144.22;100.00;60274.75;6290458;28;20745;-67
2023/01/02 00:38:56;;;;;;;40.83;14.63;;;;;;;-144.22;100.00;60274.75;6292015;28;20263;-67
2023/01/02 00:41:58;;;;;;;21.93;12.93;;;;;;;-144.22;100.00;60274.75;6291013;28;20600;-69
2023/01/02 00:45:00;;;;;;;27.73;15.57;;;;;;;-144.22;100.00;60274.75;6295874;28;20230;-67
2023/01/02 00:48:02;;;;;;;28.77;14.90;;;;;;;-144.22;100.00;60274.75;6295015;28;20275;-68
2023/01/02 00:51:04;;;;;;;32.17;16.60;;;;;;;-144.22;100.00;60274.75;6296976;28;20706;-67
2023/01/02 00:54:06;;;;;;;30.63;16.97;;;;;;;-144.22;100.00;60274.75;6297144;28;20210;-67
2023/01/02 00:57:08;;;;;;;28.70;16.70;;;;;;;-144.22;100.00;60274.75;6294451;28;20216;-67
2023/01/02 01:00:11;;;;;;;45.60;19.40;;;;;;;-144.22;100.00;60274.75;6295671;28;20744;-67
2023/01/02 01:03:20;;;;;;;40.73;20.37;;;;;;;-144.22;100.00;60274.75;6298891;28;20229;-67
2023/01/02 01:06:23;;;;;;;31.13;18.10;;;;;;;-144.22;100.00;60274.75;6278211;28;20315;-67
2023/01/02 01:09:26;;;;;;;28.20;15.67;;;;;;;-144.22;100.00;60274.75;6277876;28;20320;-67
2023/01/02 01:12:29;;;;;;;40.93;18.70;;;;;;;-144.22;100.00;60274.75;6294905;28;20234;-67
2023/01/02 01:15:32;;;;;;;25.50;16.43;;;;;;;-144.22;100.00;60274.75;6292664;28;20368;-67
2023/01/02 01:18:35;;;;;;;24.73;15.60;;;;;;;-144.22;100.00;60274.75;6282061;28;20236;-67
2023/01/02 01:21:38;;;;;;;22.30;14.43;;;;;;;-144.22;100.00;60274.75;6277430;28;20229;-67
2023/01/02 01:24:40;;;;;;;26.10;16.13;;;;;;;-144.22;100.00;60274.75;6278271;28;20316;-67
2023/01/02 01:27:42;;;;;;;19.83;13.13;;;;;;;-144.22;100.00;60274.75;6274326;28;20325;-67
2023/01/02 01:30:44;;;;;;;20.47;14.47;;;;;;;-144.22;100.00;60274.75;6277323;28;20230;-68
2023/01/02 01:33:46;;;;;;;23.50;14.63;;;;;;;-144.22;100.00;60274.75;6294093;28;20814;-67
2023/01/02 01:36:48;;;;;;;23.33;13.73;;;;;;;-144.22;100.00;60274.75;6275028;28;20717;-68
2023/01/02 01:39:50;;;;;;;22.87;13.23;;;;;;;-144.22;100.00;60274.75;6292249;28;20624;-67
2023/01/02 01:42:57;;;;;;;26.37;15.60;;;;;;;-144.22;100.00;60274.75;6278311;28;20238;-67
2023/01/02 01:46:03;;;;;;;19.13;13.50;;;;;;;-144.22;100.00;60274.75;6293115;28;20282;-68
2023/01/02 01:49:25;;;;;;;24.43;14.83;;;;;;;-144.22;100.00;60274.75;6292972;28;20245;-67
2023/01/02 01:52:30;;;;;;;18.60;12.07;;;;;;;-144.22;100.00;60274.75;6291774;28;20372;-67
2023/01/02 01:55:37;;;;;;;15.47;11.07;;;;;;;-144.22;100.00;60274.75;6276687;28;20318;-67
2023/01/02 01:58:43;;;;;;;12.87;9.83;;;;;;;-144.22;100.00;60274.75;6290132;28;20361;-67
2023/01/02 02:01:48;;;;;;;13.53;10.17;;;;;;;-144.22;100.00;60274.75;6257800;28;20287;-67
2023/01/02 02:04:52;;;;;;;14.70;10.77;;;;;;;-144.22;100.00;60274.75;6260727;28;20222;-67
2023/01/02 02:08:08;;;;;;;18.77;12.17;;;;;;;-144.22;100.00;60274.75;6292856;28;20305;-67
2023/01/02 02:11:12;;;;;;;14.87;10.60;;;;;;;-144.22;100.00;60274.75;6292872;28;20233;-68
2023/01/02 02:14:14;;;;;;;23.97;14.27;;;;;;;-144.22;100.00;60274.75;6272396;28;20231;-67
2023/01/02 02:17:31;;;;;;;18.80;12.00;;;;;;;-144.22;100.00;60274.75;6277079;28;20229;-67
2023/01/02 02:20:56;;;;;;;19.70;12.50;;;;;;;-144.22;100.00;60274.75;6293906;28;20721;-67
2023/01/02 02:24:28;;;;;;;19.17;12.33;;;;;;;-144.22;100.00;60274.75;6295956;28;20238;-67
2023/01/02 02:27:38;;;;;;;18.50;12.23;;;;;;;-144.22;100.00;60274.75;6274444;28;20597;-67
2023/01/02 02:31:01;;;;;;;17.43;12.50;;;;;;;-144.22;100.00;60274.75;6283715;28;20259;-68
2023/01/02 02:34:20;;;;;;;21.63;14.07;;;;;;;-144.22;100.00;60274.75;6290726;28;20308;-67
2023/01/02 02:37:32;;;;;;;19.43;12.73;;;;;;;-144.22;100.00;60274.75;6276164;28;20752;-68
2023/01/02 02:40:58;;;;;;;16.30;11.57;;;;;;;-144.22;100.00;60274.75;6293371;28;20230;-67
2023/01/02 02:44:30;;;;;;;16.87;12.70;;;;;;;-144.22;100.00;60274.75;6293202;28;20758;-68
2023/01/02 02:47:40;;;;;;;17.23;12.53;;;;;;;-144.22;100.00;60274.75;6289551;28;20280;-67
2023/01/02 02:51:13;;;;;;;17.90;12.13;;;;;;;-144.22;100.00;60274.75;6296359;28;20235;-67
2023/01/02 02:54:23;;;;;;;17.47;12.70;;;;;;;-144.22;100.00;60274.75;6291593;28;20311;-67
2023/01/02 02:57:26;;;;;;;21.70;12.50;;;;;;;-144.22;100.00;60274.75;6288722;28;20288;-67
2023/01/02 03:00:28;;;;;;;16.37;12.20;;;;;;;-144.22;100.00;60274.75;6278630;28;20735;-68
2023/01/02 03:03:30;;;;;;;18.37;12.63;;;;;;;-144.22;100.00;60274.75;6276710;28;20264;-67
2023/01/02 03:06:57;;;;;;;16.50;12.13;;;;;;;-144.22;100.00;60274.75;6294890;28;20233;-67
2023/01/02 03:10:14;;;;;;;14.93;10.90;;;;;;;-144.22;100.00;60274.75;6291803;28;20222;-67
2023/01/02 03:13:34;;;;;;;15.50;11.37;;;;;;;-144.22;100.00;60274.75;6274933;28;20249;-67
2023/01/02 03:16:46;;;;;;;17.80;12.77;;;;;;;-144.22;100.00;60274.75;6290627;28;20381;-69
2023/01/02 03:19:56;;;;;;;16.27;11.53;;;;;;;-144.22;100.00;60274.75;6257570;28;20236;-67
2023/01/02 03:23:04;;;;;;;17.77;11.17;;;;;;;-144.22;100.00;60274.75;6291008;28;20237;-67
2023/01/02 03:26:06;;;;;;;17.40;11.77;;;;;;;-144.22;100.00;60274.75;6291591;28;20329;-67
2023/01/02 03:29:19;;;;;;;27.03;12.83;;;;;;;-144.22;100.00;60274.75;6293704;28;20217;-67
2023/01/02 03:32:34;;;;;;;17.60;11.83;;;;;;;-144.22;100.00;60274.75;6295086;28;20235;-68
2023/01/02 03:35:48;;;;;;;13.70;10.57;;;;;;;-144.22;100.00;60274.75;6275229;28;20224;-67
2023/01/02 03:39:14;;;;;;;13.10;10.07;;;;;;;-144.22;100.00;60274.75;6275287;28;20241;-67
2023/01/02 03:42:28;;;;;;;23.50;12.17;;;;;;;-144.22;100.00;60274.75;6291074;28;20281;-67
2023/01/02 03:45:35;;;;;;;17.23;10.27;;;;;;;-144.22;100.00;60274.75;6276574;28;20232;-67
2023/01/02 03:48:50;;;;;;;14.60;10.77;;;;;;;-144.22;100.00;60274.75;6290968;28;20231;-67
2023/01/02 03:51:53;;;;;;;18.03;10.37;;;;;;;-144.22;100.00;60274.75;6293879;28;20229;-67
2023/01/02 03:54:56;;;;;;;14.10;10.67;;;;;;;-144.22;100.00;60274.75;6291639;28;20298;-67
2023/01/02 03:58:10;;;;;;;15.27;10.63;;;;;;;-144.22;100.00;60274.75;6290052;28;20230;-67
2023/01/02 04:01:27;;;;;;;17.00;10.63;;;;;;;-144.22;100.00;60274.75;6288305;28;20295;-67
2023/01/02 04:04:48;;;;;;;13.70;10.03;;;;;;;-144.22;100.00;60274.75;6279202;28;20777;-67
2023/01/02 04:07:52;;;;;;;19.27;11.20;;;;;;;-144.22;100.00;60274.75;6290638;28;20257;-67
2023/01/02 04:10:57;;;;;;;17.03;10.23;;;;;;;-144.22;100.00;60274.75;6289818;28;20233;-67
2023/01/02 04:14:06;;;;;;;16.60;11.23;;;;;;;-144.22;100.00;60274.75;6292612;28;20226;-67
2023/01/02 04:17:10;;;;;;;13.97;10.03;;;;;;;-144.22;100.00;60274.75;6294310;28;20579;-68
2023/01/02 04:20:19;;;;;;;17.73;11.17;;;;;;;-144.22;100.00;60274.75;6270737;28;20271;-67
2023/01/02 04:23:47;;;;;;;17.43;11.20;;;;;;;-144.22;100.00;60274.75;6289589;28;20568;-67
2023/01/02 04:26:57;;;;;;;15.07;10.63;;;;;;;-144.22;100.00;60274.75;6280577;28;20698;-67
2023/01/02 04:29:59;;;;;;;14.00;10.50;;;;;;;-144.22;100.00;60274.75;6290525;28;20227;-67
2023/01/02 04:33:07;;;;;;;14.10;10.17;;;;;;;-144.22;100.00;60274.75;6277265;28;20299;-68
2023/01/02 04:36:12;;;;;;;15.90;10.87;;;;;;;-144.22;100.00;60274.75;6272844;28;20545;-67
2023/01/02 04:39:14;;;;;;;15.73;10.80;;;;;;;-144.22;100.00;60274.75;6288256;28;20221;-67
2023/01/02 04:42:16;;;;;;;16.77;11.67;;;;;;;-144.22;100.00;60274.75;6290868;28;20224;-67
2023/01/02 04:45:18;;;;;;;15.17;10.47;;;;;;;-144.22;100.00;60274.75;6290920;28;20221;-67
2023/01/02 04:48:20;;;;;;;16.73;12.00;;;;;;;-144.22;100.00;60274.75;6290787;28;20225;-67
2023/01/02 04:51:23;;;;;;;16.83;11.07;;;;;;;-144.22;100.00;60274.75;6280137;28;20233;-67
2023/01/02 04:54:25;;;;;;;15.47;10.77;;;;;;;-144.22;100.00;60274.75;6286602;28;20230;-67
2023/01/02 04:57:27;;;;;;;14.13;10.37;;;;;;;-144.22;100.00;60274.75;6289894;28;20375;-67
2023/01/02 05:00:29;;;;;;;14.87;10.87;;;;;;;-144.22;100.00;60274.75;6271945;28;20294;-67
2023/01/02 05:03:31;;;;;;;15.87;10.23;;;;;;;-144.22;100.00;60274.75;6290269;28;20229;-68
2023/01/02 05:06:33;;;;;;;12.50;9.97;;;;;;;-144.22;100.00;60274.75;6287242;28;20229;-67
2023/01/02 05:09:36;;;;;;;12.87;9.10;;;;;;;-144.22;100.00;60274.75;6275043;28;20610;-67
2023/01/02 05:12:38;;;;;;;12.53;9.20;;;;;;;-144.22;100.00;60274.75;6270750;28;20519;-67
2023/01/02 05:15:41;;;;;;;14.00;10.20;;;;;;;-144.22;100.00;60274.75;6289080;28;20254;-67
2023/01/02 05:18:43;;;;;;;18.17;11.43;;;;;;;-144.22;100.00;60274.75;6291306;28;20721;-67
2023/01/02 05:25:08;;;;;;;17.97;12.33;;;;;;;-144.22;100.00;60274.75;6289987;28;21264;-67
2023/01/02 05:28:10;;;;;;;20.17;12.07;;;;;;;-144.22;100.00;60274.75;6290431;28;20242;-67
2023/01/02 05:31:12;;;;;;;18.93;12.00;;;;;;;-144.22;100.00;60274.75;6277224;28;20271;-67
2023/01/02 05:34:15;;;;;;;24.20;12.53;;;;;;;-144.22;100.00;60274.75;6293314;28;20252;-67
2023/01/02 05:37:17;;;;;;;15.53;10.93;;;;;;;-144.22;100.00;60274.75;6274546;28;20238;-67
2023/01/02 05:40:19;;;;;;;14.87;10.53;;;;;;;-144.22;100.00;60274.75;6294489;28;20643;-67
2023/01/02 05:43:21;;;;;;;21.27;12.90;;;;;;;-144.22;100.00;60274.75;6273938;28;20701;-67
2023/01/02 05:46:23;;;;;;;16.67;11.93;;;;;;;-144.22;100.00;60274.75;6295125;28;20233;-69
2023/01/02 05:49:25;;;;;;;19.60;12.87;;;;;;;-144.22;100.00;60274.75;6293845;28;20222;-67
2023/01/02 05:52:27;;;;;;;18.47;11.13;;;;;;;-144.22;100.00;60274.75;6292755;28;20236;-67
2023/01/02 05:55:29;;;;;;;16.97;11.20;;;;;;;-144.22;100.00;60274.75;6292387;28;20237;-67
2023/01/02 05:58:33;;;;;;;19.37;12.33;;;;;;;-144.22;100.00;60274.75;6294899;28;20652;-67
2023/01/02 06:01:35;;;;;;;19.17;11.37;;;;;;;-144.22;100.00;60274.75;6294807;28;20242;-68
2023/01/02 06:04:37;;;;;;;15.37;11.00;;;;;;;-144.22;100.00;60274.75;6276054;28;20602;-67
2023/01/02 06:07:39;;;;;;;17.73;10.67;;;;;;;-144.22;100.00;60274.75;6274690;28;20379;-67
2023/01/02 06:10:51;;;;;;;16.73;11.93;;;;;;;-144.22;100.00;60274.75;6274296;28;20309;-68
2023/01/02 06:13:53;;;;;;;18.07;11.83;;;;;;;-144.22;100.00;60274.75;6294178;28;20731;-67
2023/01/02 06:16:55;;;;;;;21.63;13.97;;;;;;;-144.22;100.00;60274.75;6291200;28;20266;-67
2023/01/02 06:19:57;;;;;;;19.67;13.07;;;;;;;-144.22;100.00;60274.75;6292854;28;20238;-68
2023/01/02 06:22:59;;;;;;;23.53;14.10;;;;;;;-144.22;100.00;60274.75;6293250;28;20230;-67
2023/01/02 06:26:04;;;;;;;19.13;12.93;;;;;;;-144.22;100.00;60274.75;6292934;28;20229;-68
2023/01/02 06:29:08;;;;;;;22.33;12.93;;;;;;;-144.22;100.00;60274.75;6276718;28;20222;-67
2023/01/02 06:32:10;;;;;;;22.70;14.00;;;;;;;-144.22;100.00;60274.75;6292931;28;20378;-67
2023/01/02 06:35:12;;;;;;;22.17;14.20;;;;;;;-144.22;100.00;60274.75;6291053;28;20647;-67
2023/01/02 06:38:14;;;;;;;19.07;13.07;;;;;;;-144.22;100.00;60274.75;6292392;28;20236;-68
2023/01/02 06:41:16;;;;;;;19.90;13.73;;;;;;;-144.22;100.00;60274.75;6259829;28;20313;-68
2023/01/02 06:44:18;;;;;;;19.53;12.27;;;;;;;-144.22;100.00;60274.75;6278199;28;20758;-67
2023/01/02 06:47:20;;;;;;;18.40;12.37;;;;;;;-144.22;100.00;60274.75;6293060;28;20229;-67
2023/01/02 06:50:22;;;;;;;19.90;13.27;;;;;;;-144.22;100.00;60274.75;6295578;28;20308;-67
2023/01/02 06:53:33;;;;;;;19.70;11.43;;;;;;;-144.22;100.00;60274.75;6293128;28;20227;-67
2023/01/02 06:56:35;;;;;;;16.43;10.70;;;;;;;-144.22;100.00;60274.75;6295572;28;20232;-67
2023/01/02 06:59:37;;;;;;;17.73;11.53;;;;;;;-144.22;100.00;60274.75;6274274;28;20778;-67
2023/01/02 07:02:40;;;;;;;16.87;11.00;;;;;;;-144.22;100.00;60274.75;6292368;28;20243;-67
2023/01/02 07:05:43;;;;;;;19.17;11.60;;;;;;;-144.22;100.00;60274.75;6292338;28;20670;-70
2023/01/02 07:08:46;;;;;;;18.13;12.53;;;;;;;-144.22;100.00;60274.75;6292081;28;20230;-67
2023/01/02 07:11:48;;;;;;;18.90;12.20;;;;;;;-144.22;100.00;60274.75;6295139;28;20226;-67
2023/01/02 07:14:50;;;;;;;20.33;12.80;;;;;;;-144.22;100.00;60274.75;6292583;28;20267;-68
2023/01/02 07:17:52;;;;;;;14.50;10.40;;;;;;;-144.22;100.00;60274.75;6292380;28;20222;-67
2023/01/02 07:20:54;;;;;;;17.13;12.10;;;;;;;-144.22;100.00;60274.75;6290686;28;20313;-67
2023/01/02 07:23:56;;;;;;;17.73;11.17;;;;;;;-144.22;100.00;60274.75;6288038;28;20231;-67
2023/01/02 07:26:58;;;;;;;18.90;12.40;;;;;;;-144.22;100.00;60274.75;6266273;28;20234;-68
2023/01/02 07:30:00;;;;;;;25.50;14.47;;;;;;;-144.22;100.00;60274.75;6273488;28;20710;-71
2023/01/02 07:33:03;;;;;;;23.53;14.10;;;;;;;-144.22;100.00;60274.75;6274913;28;20203;-67
2023/01/02 07:36:09;;;;;;;21.80;14.27;;;;;;;-144.22;100.00;60274.75;6293814;28;20214;-67
2023/01/02 07:39:11;;;;;;;26.83;15.37;;;;;;;-144.22;100.00;60274.75;6274605;28;20218;-67
2023/01/02 07:42:13;;;;;;;21.93;13.77;;;;;;;-144.22;100.00;60274.75;6274766;28;20908;-67
2023/01/02 07:45:16;;;;;;;21.03;13.17;;;;;;;-144.22;100.00;60274.75;6294666;28;20242;-67
2023/01/02 07:48:18;;;;;;;22.50;14.43;;;;;;;-144.22;100.00;60274.75;6295134;28;20237;-67
2023/01/02 07:51:20;;;;;;;14.73;10.60;;;;;;;-144.22;100.00;60274.75;6272377;28;20211;-67
2023/01/02 07:54:31;;;;;;;20.20;12.40;;;;;;;-144.22;100.00;60274.75;6289909;28;20223;-67
2023/01/02 07:57:33;;;;;;;24.73;15.63;;;;;;;-144.22;100.00;60274.75;6272515;28;20218;-67
2023/01/02 08:00:35;;;;;;;26.73;14.63;;;;;;;-144.22;100.00;60274.75;6289022;28;20248;-67
2023/01/02 08:03:38;;;;;;;29.63;15.77;;;;;;;-144.22;100.00;60274.75;6289456;28;20602;-67
2023/01/02 08:06:40;;;;;;;20.87;14.03;;;;;;;-144.22;100.00;60274.75;6291841;28;20226;-67
2023/01/02 08:09:42;;;;;;;23.10;14.20;;;;;;;-144.22;100.00;60274.75;6256441;28;20229;-68
2023/01/02 08:12:44;;;;;;;24.90;15.77;;;;;;;-144.22;100.00;60274.75;6288987;28;20229;-67
2023/01/02 08:15:47;;;;;;;28.90;16.23;;;;;;;-144.22;100.00;60274.75;6293200;28;20250;-67
2023/01/02 08:18:54;;;;;;;26.77;16.83;;;;;;;-144.22;100.00;60274.75;6272037;28;20237;-67
2023/01/02 08:21:56;;;;;;;26.37;15.20;;;;;;;-144.22;100.00;60274.75;6289712;28;20222;-69
2023/01/02 08:24:59;;;;;;;24.43;15.50;;;;;;;-144.22;100.00;60274.75;6272653;28;20226;-67
2023/01/02 08:28:02;;;;;;;24.30;15.90;;;;;;;-144.22;100.00;60274.75;6270949;28;20309;-67
2023/01/02 08:31:17;;;;;;;21.20;14.53;;;;;;;-144.22;100.00;60274.75;6274004;28;20225;-67
2023/01/02 08:34:19;;;;;;;21.73;15.10;;;;;;;-144.22;100.00;60274.75;6290079;28;20241;-67
2023/01/02 08:37:21;;;;;;;26.17;14.93;;;;;;;-144.22;100.00;60274.75;6290220;28;20705;-68
2023/01/02 08:40:23;;;;;;;24.97;15.03;;;;;;;-144.22;100.00;60274.75;6270182;28;20668;-66
2023/01/02 08:43:26;;;;;;;23.77;14.77;;;;;;;-144.22;100.00;60274.75;6287564;28;20713;-67
2023/01/02 08:46:30;;;;;;;40.83;16.70;;;;;;;-144.22;100.00;60274.75;6287013;28;20238;-67
2023/01/02 08:49:41;;;;;;;22.23;15.10;;;;;;;-144.22;100.00;60274.75;6273480;28;20234;-67
2023/01/02 08:52:43;;;;;;;24.00;15.03;;;;;;;-144.22;100.00;60274.75;6292274;28;20799;-67
2023/01/02 08:55:45;;;;;;;21.13;13.73;;;;;;;-144.22;100.00;60274.75;6274302;28;20229;-68
2023/01/02 08:58:55;;;;;;;20.57;14.13;;;;;;;-144.22;100.00;60274.75;6276151;28;20329;-67
2023/01/02 09:01:57;;;;;;;24.07;15.07;;;;;;;-144.22;100.00;60274.75;6291256;28;20603;-67
2023/01/02 09:05:00;;;;;;;24.00;15.30;;;;;;;-144.22;100.00;60274.75;6276245;28;20238;-67
2023/01/02 09:08:02;;;;;;;21.57;14.20;;;;;;;-144.22;100.00;60274.75;6281438;28;20234;-68
2023/01/02 09:11:16;;;;;;;21.93;14.00;;;;;;;7.52;100.00;60274.75;6280389;28;20231;-67
2023/01/02 09:14:20;;;;;;;25.47;14.87;;;;;;;4.33;100.00;60274.75;6278865;28;20241;-66
2023/01/02 09:17:22;;;;;;;26.47;15.13;;;;;;;4.38;100.00;60274.75;6277136;28;20233;-67
2023/01/02 09:20:24;;;;;;;20.43;13.23;;;;;;;4.40;100.00;78338.41;6279610;28;20311;-67
2023/01/02 09:23:28;;;;;;;24.27;15.43;;;;;;;4.41;100.00;60274.75;6295567;28;20234;-67
2023/01/02 09:26:30;;;;;;;19.83;13.93;;;;;;;4.44;100.00;60274.75;6260523;28;20318;-67
2023/01/02 09:29:33;;;;;;;28.93;15.50;;;;;;;-144.22;100.00;60274.75;6292890;28;20229;-67
2023/01/02 09:32:36;;;;;;;22.00;14.30;;;;;;;177.61;100.00;60274.75;6280914;28;20222;-67
2023/01/02 09:35:38;;;;;;;22.73;14.83;;;;;;;-144.22;100.00;60274.75;6292975;28;20232;-67
2023/01/02 09:38:41;;;;;;;23.27;14.47;;;;;;;-144.22;100.00;60274.75;6295550;28;20228;-68
2023/01/02 09:41:49;;;;;;;20.23;13.57;;;;;;;-144.22;100.00;60274.75;6292945;28;20228;-67
2023/01/02 09:44:55;;;;;;;21.57;14.83;;;;;;;11.36;100.00;60274.75;6291605;28;20239;-67
2023/01/02 09:47:58;;;;;;;30.50;16.30;;;;;;;-144.22;100.00;60274.75;6263469;28;20227;-67
2023/01/02 09:51:05;;;;;;;34.03;16.17;;;;;;;4.45;100.00;60274.75;6292304;28;20314;-67
2023/01/02 09:54:22;;;;;;;39.10;16.57;;;;;;;4.26;100.00;60274.75;6274663;28;20228;-67
2023/01/02 09:57:52;;;;;;;43.03;15.87;;;;;;;4.87;100.00;60274.75;6275408;28;20225;-68
2023/01/02 10:00:55;;;;;;;27.30;15.97;;;;;;;-144.22;100.00;60274.75;6256242;28;20835;-67
2023/01/02 10:04:28;;;;;;;21.30;15.37;;;;;;;21.74;100.00;60274.75;6293637;28;20682;-67
2023/01/02 10:07:30;;;;;;;23.80;15.40;;;;;;;-144.22;100.00;60274.75;6283669;28;20588;-67
2023/01/02 10:10:43;;;;;;;23.43;15.03;;;;;;;4.38;100.00;60274.75;6288192;28;20260;-67
2023/01/02 10:14:05;;;;;;;28.30;16.57;;;;;;;4.23;100.00;60274.75;6259504;28;20228;-67
2023/01/02 10:17:32;;;;;;;28.27;15.57;;;;;;;-144.22;100.00;60274.75;6292381;28;20227;-67
2023/01/02 10:20:41;;;;;;;31.50;16.37;;;;;;;-144.22;100.00;60274.75;6276894;28;20230;-67
2023/01/02 10:23:54;;;;;;;23.47;15.03;;;;;;;4.20;100.00;60274.75;6288698;28;20292;-67
2023/01/02 10:26:58;;;;;;;23.80;14.60;;;;;;;-144.22;100.00;60274.75;6275887;28;20369;-69
2023/01/02 10:30:23;;;;;;;25.67;15.97;;;;;;;-144.22;100.00;60274.75;6272362;28;20238;-67
2023/01/02 10:33:35;;;;;;;23.33;15.60;;;;;;;177.61;100.00;60274.75;6291144;28;20330;-66
2023/01/02 10:36:41;;;;;;;25.67;17.20;;;;;;;188.01;100.00;60274.75;6272002;28;20588;-67
2023/01/02 10:39:47;;;;;;;24.03;15.80;;;;;;;-144.22;100.00;60274.75;6270302;28;20316;-67
2023/01/02 10:42:55;;;;;;;26.73;16.60;;;;;;;-144.22;100.00;60274.75;6278461;28;20317;-68
2023/01/02 10:46:03;;;;;;;23.87;15.57;;;;;;;-144.22;100.00;60274.75;6290800;28;20271;-67
2023/01/02 10:49:11;;;;;;;24.57;15.13;;;;;;;4.71;100.00;60274.75;6297085;28;20237;-66
2023/01/02 10:52:32;;;;;;;23.77;15.90;;;;;;;-144.22;100.00;60274.75;6278242;28;20238;-66
2023/01/02 10:55:39;;;;;;;21.17;14.33;;;;;;;-144.22;100.00;60274.75;6290190;28;20241;-68
2023/01/02 10:58:50;;;;;;;22.53;15.00;;;;;;;4.62;100.00;60274.75;6277912;28;20367;-67
2023/01/02 11:01:55;;;;;;;23.37;15.40;;;;;;;4.57;100.00;60274.75;6272302;28;20235;-66
2023/01/02 11:05:00;;;;;;;28.43;16.60;;;;;;;-144.22;100.00;60274.75;6287243;28;20358;-66
2023/01/02 11:08:12;;;;;;;25.53;15.80;;;;;;;-144.22;100.00;60274.75;6272742;28;20699;-66
2023/01/02 11:11:16;;;;;;;29.60;16.40;;;;;;;11.36;100.00;60274.75;6291842;28;20226;-67
2023/01/02 11:14:27;;;;;;;22.03;14.80;;;;;;;4.63;100.00;60274.75;6290075;28;20229;-68
2023/01/02 11:17:43;;;;;;;30.63;15.37;;;;;;;-144.22;100.00;60274.75;6291743;28;20232;-67
2023/01/02 11:20:52;;;;;;;22.57;14.63;;;;;;;4.53;100.00;60274.75;6291862;28;20254;-68
2023/01/02 11:24:00;;;;;;;20.20;13.70;;;;;;;-144.22;100.00;60274.75;6272561;28;20628;-67
2023/01/02 11:27:02;;;;;;;19.17;13.37;;;;;;;-144.22;100.00;60274.75;6273870;28;20591;-67
2023/01/02 11:30:08;;;;;;;18.73;13.03;;;;;;;-144.22;100.00;60274.75;6289616;28;20222;-67
2023/01/02 11:33:13;;;;;;;18.73;13.13;;;;;;;188.01;100.00;60274.75;6293717;28;20302;-68
2023/01/02 11:36:17;;;;;;;19.00;13.23;;;;;;;-144.22;100.00;60274.75;6289920;28;20275;-67
2023/01/02 11:39:22;;;;;;;20.43;14.03;;;;;;;-144.22;100.00;60274.75;6276538;28;20586;-67
2023/01/02 11:45:55;;;;;;;18.93;13.90;;;;;;;188.01;100.00;60274.75;6297227;28;20231;-67
2023/01/02 11:49:13;;;;;;;21.53;14.53;;;;;;;-144.22;100.00;60274.75;6294736;28;20706;-68
2023/01/02 11:52:20;;;;;;;20.13;14.30;;;;;;;-144.22;100.00;60274.75;6288651;28;20236;-67
2023/01/02 11:55:36;;;;;;;21.33;14.77;;;;;;;-144.22;100.00;60274.75;6291276;28;20232;-66
2023/01/02 11:58:57;;;;;;;20.93;14.87;;;;;;;-144.22;100.00;60274.75;6290477;28;20253;-66
2023/01/02 12:02:11;;;;;;;17.10;13.87;;;;;;;-144.22;100.00;60274.75;6288939;28;20254;-67
2023/01/02 12:05:23;;;;;;;20.83;14.73;;;;;;;10.06;100.00;60274.75;6289460;28;20694;-67
2023/01/02 12:08:43;;;;;;;18.80;13.70;;;;;;;-144.22;100.00;60274.75;6289128;28;20228;-67
2023/01/02 12:12:04;;;;;;;20.83;14.17;;;;;;;-144.22;100.00;60274.75;6288617;28;20223;-67
2023/01/02 12:15:06;;;;;;;17.87;13.20;;;;;;;-144.22;100.00;60274.75;6273568;28;20246;-68
2023/01/02 12:18:38;;;;;;;24.97;14.70;;;;;;;-144.22;100.00;60274.75;6289885;28;20587;-68
2023/01/02 12:22:11;;;;;;;19.17;12.97;;;;;;;4.72;100.00;60274.75;6292155;28;20236;-66
2023/01/02 12:25:13;;;;;;;25.70;15.63;;;;;;;-144.22;100.00;60274.75;6290459;28;20242;-67
2023/01/02 12:28:54;;;;;;;20.13;14.27;;;;;;;-144.22;100.00;60274.75;6288992;28;20242;-66
2023/01/02 12:32:08;;;;;;;27.10;14.90;;;;;;;-144.22;100.00;60274.75;6271079;28;20319;-67
2023/01/02 12:35:35;;;;;;;24.33;15.83;;;;;;;-144.22;100.00;60274.75;6272088;28;20232;-67
2023/01/02 12:39:14;;;;;;;22.83;14.63;;;;;;;4.69;100.00;60274.75;6286373;28;20250;-67
2023/01/02 12:42:16;;;;;;;21.97;14.97;;;;;;;-144.22;100.00;60274.75;6289933;28;20314;-67
2023/01/02 12:45:34;;;;;;;19.53;14.07;;;;;;;188.01;100.00;60274.75;6252714;28;20266;-67
2023/01/02 12:48:54;;;;;;;20.03;14.80;;;;;;;-144.22;100.00;60274.75;6288211;28;20231;-68
2023/01/02 12:52:02;;;;;;;20.40;14.97;;;;;;;188.01;100.00;60274.75;6289859;28;20598;-68
2023/01/02 12:55:13;;;;;;;20.13;14.00;;;;;;;-144.22;100.00;60274.75;6289268;28;20234;-67
2023/01/02 12:58:15;;;;;;;22.73;14.47;;;;;;;-144.22;100.00;60274.75;6290543;28;20235;-68
2023/01/02 13:01:42;;;;;;;19.70;13.70;;;;;;;-144.22;100.00;60274.75;6283585;28;20283;-67
2023/01/02 13:04:53;;;;;;;21.33;14.73;;;;;;;-144.22;100.00;60274.75;6282032;28;20288;-67
2023/01/02 13:08:12;;;;;;;19.73;14.17;;;;;;;-144.22;100.00;60274.75;6288995;28;20597;-67
2023/01/02 13:11:28;;;;;;;17.90;13.13;;;;;;;-144.22;100.00;60274.75;6277036;28;20720;-67
2023/01/02 13:14:49;;;;;;;20.67;14.57;;;;;;;-144.22;100.00;60274.75;6255111;28;20582;-67
2023/01/02 13:18:19;;;;;;;18.30;13.07;;;;;;;4.24;100.00;60274.75;6289106;28;20235;-67
2023/01/02 13:21:57;;;;;;;19.80;13.97;;;;;;;-144.22;100.00;60274.75;6290110;28;22804;-66
2023/01/02 13:25:00;;;;;;;26.30;14.77;;;;;;;-144.22;100.00;60274.75;6288131;28;20231;-68
2023/01/02 13:28:06;;;;;;;27.60;14.87;;;;;;;-144.22;100.00;60274.75;6289252;28;20247;-68
2023/01/02 13:31:10;;;;;;;24.80;15.17;;;;;;;-144.22;100.00;60274.75;6291138;28;20237;-67
2023/01/02 13:34:36;;;;;;;27.80;15.33;;;;;;;-144.22;100.00;60274.75;6292076;28;20314;-67
2023/01/02 13:37:41;;;;;;;31.20;15.37;;;;;;;-144.22;100.00;60274.75;6289294;28;20237;-67
2023/01/02 13:40:46;;;;;;;23.93;14.50;;;;;;;-144.22;100.00;60274.75;6289466;28;20258;-68
2023/01/02 13:43:59;;;;;;;51.50;15.00;;;;;;;188.01;100.00;60274.75;6275734;28;20326;-67
2023/01/02 13:47:32;;;;;;;24.37;14.50;;;;;;;-144.22;100.00;60274.75;6291899;28;20238;-68
2023/01/02 13:50:37;;;;;;;37.07;16.13;;;;;;;-144.22;100.00;60274.75;6291601;28;20234;-67
2023/01/02 13:53:45;;;;;;;21.90;14.67;;;;;;;11.36;100.00;60274.75;6290738;28;20641;-67
2023/01/02 13:57:15;;;;;;;18.47;13.43;;;;;;;6.17;100.00;60274.75;6274600;28;20290;-69
2023/01/02 14:00:17;;;;;;;42.67;15.20;;;;;;;3.58;100.00;60274.75;6291430;28;20344;-67
2023/01/02 14:03:19;;;;;;;18.50;12.67;;;;;;;3.58;100.00;60274.75;6273245;28;20304;-67
2023/01/02 14:06:34;;;;;;;30.70;13.80;;;;;;;3.58;100.00;60274.75;6290792;28;20236;-67